sensor_id;sensor_type;location;lat;lon;timestamp;P1;durP1;ratioP1;P2;durP2;ratioP2
62256;SDS011;48240;52.962;5.790;2023-01-19T04:55:26;4.68;;;0.50;;
62256;SDS011;48240;52.962;5.790;2023-01-19T04:57:52;1.90;;;0.63;;
62256;SDS011;48240;52.962;5.790;2023-01-19T05:00:18;3.85;;;0.70;;
62256;SDS011;48240;52.962;5.790;2023-01-19T05:02:45;5.07;;;0.70;;
62256;SDS011;48240;52.962;5.790;2023-01-19T05:05:11;2.60;;;0.50;;
62256;SDS011;48240;52.962;5.790;2023-01-19T05:07:38;2.17;;;0.60;;
62256;SDS011;48240;52.962;5.790;2023-01-19T05:10:04;2.97;;;0.60;;
62256;SDS011;48240;52.962;5.790;2023-01-19T05:12:31;2.80;;;0.47;;
62256;SDS011;48240;52.962;5.790;2023-01-19T05:14:57;3.22;;;0.65;;
62256;SDS011;48240;52.962;5.790;2023-01-19T05:17:23;4.90;;;0.65;;
62256;SDS011;48240;52.962;5.790;2023-01-19T05:19:49;3.95;;;0.65;;
62256;SDS011;48240;52.962;5.790;2023-01-19T05:22:15;4.03;;;0.68;;
62256;SDS011;48240;52.962;5.790;2023-01-19T05:24:41;2.08;;;0.52;;
62256;SDS011;48240;52.962;5.790;2023-01-19T05:27:08;3.17;;;0.57;;
62256;SDS011;48240;52.962;5.790;2023-01-19T05:29:34;2.60;;;0.50;;
62256;SDS011;48240;52.962;5.790;2023-01-19T05:32:00;3.13;;;0.60;;
62256;SDS011;48240;52.962;5.790;2023-01-19T05:34:26;3.08;;;0.70;;
62256;SDS011;48240;52.962;5.790;2023-01-19T05:36:52;5.07;;;0.70;;
62256;SDS011;48240;52.962;5.790;2023-01-19T05:39:18;2.15;;;0.50;;
62256;SDS011;48240;52.962;5.790;2023-01-19T05:41:44;3.33;;;0.90;;
62256;SDS011;48240;52.962;5.790;2023-01-19T05:44:11;2.72;;;0.70;;
62256;SDS011;48240;52.962;5.790;2023-01-19T05:46:37;5.30;;;0.70;;
62256;SDS011;48240;52.962;5.790;2023-01-19T05:49:03;8.02;;;0.98;;
62256;SDS011;48240;52.962;5.790;2023-01-19T05:51:31;4.03;;;0.90;;
62256;SDS011;48240;52.962;5.790;2023-01-19T05:54:02;6.77;;;0.93;;
62256;SDS011;48240;52.962;5.790;2023-01-19T05:56:28;2.08;;;0.70;;
62256;SDS011;48240;52.962;5.790;2023-01-19T05:58:54;4.30;;;0.80;;
62256;SDS011;48240;52.962;5.790;2023-01-19T06:01:20;3.58;;;0.73;;
62256;SDS011;48240;52.962;5.790;2023-01-19T06:03:46;4.47;;;0.75;;
62256;SDS011;48240;52.962;5.790;2023-01-19T06:06:13;2.25;;;0.60;;
62256;SDS011;48240;52.962;5.790;2023-01-19T06:08:39;5.32;;;0.70;;
62256;SDS011;48240;52.962;5.790;2023-01-19T06:11:06;4.60;;;0.80;;
62256;SDS011;48240;52.962;5.790;2023-01-19T06:13:32;3.30;;;0.55;;
62256;SDS011;48240;52.962;5.790;2023-01-19T06:15:59;4.65;;;1.02;;
62256;SDS011;48240;52.962;5.790;2023-01-19T06:18:26;5.72;;;0.90;;
62256;SDS011;48240;52.962;5.790;2023-01-19T06:20:52;3.75;;;1.15;;
62256;SDS011;48240;52.962;5.790;2023-01-19T06:23:26;4.10;;;0.70;;
62256;SDS011;48240;52.962;5.790;2023-01-19T06:25:52;2.97;;;0.70;;
62256;SDS011;48240;52.962;5.790;2023-01-19T06:28:18;6.82;;;0.80;;
62256;SDS011;48240;52.962;5.790;2023-01-19T06:30:47;3.55;;;0.60;;
62256;SDS011;48240;52.962;5.790;2023-01-19T06:33:14;2.08;;;0.55;;
62256;SDS011;48240;52.962;5.790;2023-01-19T06:35:47;4.03;;;0.80;;
62256;SDS011;48240;52.962;5.790;2023-01-19T06:38:14;6.63;;;0.70;;
62256;SDS011;48240;52.962;5.790;2023-01-19T06:40:42;2.72;;;0.60;;
62256;SDS011;48240;52.962;5.790;2023-01-19T06:43:09;5.40;;;0.77;;
62256;SDS011;48240;52.962;5.790;2023-01-19T06:45:35;6.18;;;1.00;;
62256;SDS011;48240;52.962;5.790;2023-01-19T06:48:03;4.38;;;0.85;;
62256;SDS011;48240;52.962;5.790;2023-01-19T06:50:29;5.63;;;0.70;;
62256;SDS011;48240;52.962;5.790;2023-01-19T06:52:55;4.25;;;0.70;;
62256;SDS011;48240;52.962;5.790;2023-01-19T06:55:21;7.90;;;1.00;;
62256;SDS011;48240;52.962;5.790;2023-01-19T06:57:47;3.85;;;0.90;;
62256;SDS011;48240;52.962;5.790;2023-01-19T07:00:13;4.78;;;0.80;;
62256;SDS011;48240;52.962;5.790;2023-01-19T07:02:40;4.40;;;0.85;;
62256;SDS011;48240;52.962;5.790;2023-01-19T07:05:07;5.38;;;0.73;;
62256;SDS011;48240;52.962;5.790;2023-01-19T07:07:34;3.42;;;0.77;;
62256;SDS011;48240;52.962;5.790;2023-01-19T07:10:00;5.70;;;1.00;;
62256;SDS011;48240;52.962;5.790;2023-01-19T07:12:26;6.22;;;0.75;;
62256;SDS011;48240;52.962;5.790;2023-01-19T07:14:52;6.78;;;0.80;;
62256;SDS011;48240;52.962;5.790;2023-01-19T07:17:18;5.00;;;1.10;;
62256;SDS011;48240;52.962;5.790;2023-01-19T07:19:45;5.85;;;1.00;;
62256;SDS011;48240;52.962;5.790;2023-01-19T07:22:11;5.35;;;1.00;;
62256;SDS011;48240;52.962;5.790;2023-01-19T07:24:37;3.15;;;0.90;;
62256;SDS011;48240;52.962;5.790;2023-01-19T07:27:03;5.63;;;1.00;;
62256;SDS011;48240;52.962;5.790;2023-01-19T07:29:29;3.15;;;0.70;;
62256;SDS011;48240;52.962;5.790;2023-01-19T07:31:55;6.28;;;1.00;;
62256;SDS011;48240;52.962;5.790;2023-01-19T07:34:21;4.30;;;1.00;;
62256;SDS011;48240;52.962;5.790;2023-01-19T07:36:48;4.40;;;1.15;;
62256;SDS011;48240;52.962;5.790;2023-01-19T07:39:14;6.45;;;1.00;;
62256;SDS011;48240;52.962;5.790;2023-01-19T07:41:40;2.63;;;1.00;;
62256;SDS011;48240;52.962;5.790;2023-01-19T07:44:06;4.18;;;0.80;;
62256;SDS011;48240;52.962;5.790;2023-01-19T07:46:32;6.45;;;0.95;;
62256;SDS011;48240;52.962;5.790;2023-01-19T07:48:59;5.00;;;0.93;;
62256;SDS011;48240;52.962;5.790;2023-01-19T07:51:25;5.20;;;0.75;;
62256;SDS011;48240;52.962;5.790;2023-01-19T07:53:51;5.80;;;0.80;;
62256;SDS011;48240;52.962;5.790;2023-01-19T07:56:18;4.20;;;0.80;;
62256;SDS011;48240;52.962;5.790;2023-01-19T07:58:44;4.57;;;0.80;;
62256;SDS011;48240;52.962;5.790;2023-01-19T08:01:11;4.00;;;0.88;;
62256;SDS011;48240;52.962;5.790;2023-01-19T08:03:38;4.45;;;0.80;;
62256;SDS011;48240;52.962;5.790;2023-01-19T08:06:04;5.38;;;1.10;;
62256;SDS011;48240;52.962;5.790;2023-01-19T08:08:31;4.35;;;0.88;;
62256;SDS011;48240;52.962;5.790;2023-01-19T08:10:58;4.25;;;1.00;;
62256;SDS011;48240;52.962;5.790;2023-01-19T08:13:24;5.82;;;0.80;;
62256;SDS011;48240;52.962;5.790;2023-01-19T08:15:51;6.25;;;0.95;;
62256;SDS011;48240;52.962;5.790;2023-01-19T08:18:18;3.10;;;0.80;;
62256;SDS011;48240;52.962;5.790;2023-01-19T08:20:44;3.08;;;0.60;;
62256;SDS011;48240;52.962;5.790;2023-01-19T08:23:10;2.45;;;0.90;;
62256;SDS011;48240;52.962;5.790;2023-01-19T08:25:40;5.22;;;0.90;;
62256;SDS011;48240;52.962;5.790;2023-01-19T08:28:08;5.03;;;0.90;;
62256;SDS011;48240;52.962;5.790;2023-01-19T08:30:35;3.50;;;0.85;;
62256;SDS011;48240;52.962;5.790;2023-01-19T08:33:01;6.70;;;1.02;;
62256;SDS011;48240;52.962;5.790;2023-01-19T08:35:32;4.13;;;0.90;;
62256;SDS011;48240;52.962;5.790;2023-01-19T08:38:00;4.03;;;0.95;;
62256;SDS011;48240;52.962;5.790;2023-01-19T08:40:29;4.75;;;0.95;;
62256;SDS011;48240;52.962;5.790;2023-01-19T08:42:58;3.20;;;0.80;;
62256;SDS011;48240;52.962;5.790;2023-01-19T08:45:27;3.40;;;0.60;;
62256;SDS011;48240;52.962;5.790;2023-01-19T08:47:55;3.88;;;0.77;;
62256;SDS011;48240;52.962;5.790;2023-01-19T08:50:23;5.18;;;0.88;;
62256;SDS011;48240;52.962;5.790;2023-01-19T08:52:49;4.97;;;0.98;;
62256;SDS011;48240;52.962;5.790;2023-01-19T08:55:16;5.72;;;1.00;;
62256;SDS011;48240;52.962;5.790;2023-01-19T08:57:42;7.43;;;0.80;;
62256;SDS011;48240;52.962;5.790;2023-01-19T09:00:08;6.30;;;0.95;;
62256;SDS011;48240;52.962;5.790;2023-01-19T09:02:35;4.63;;;0.90;;
62256;SDS011;48240;52.962;5.790;2023-01-19T09:05:01;4.97;;;1.20;;
62256;SDS011;48240;52.962;5.790;2023-01-19T09:07:28;4.50;;;0.93;;
62256;SDS011;48240;52.962;5.790;2023-01-19T09:09:55;5.15;;;0.88;;
62256;SDS011;48240;52.962;5.790;2023-01-19T09:12:21;4.32;;;1.00;;
62256;SDS011;48240;52.962;5.790;2023-01-19T09:14:47;2.83;;;0.70;;
62256;SDS011;48240;52.962;5.790;2023-01-19T09:17:13;3.90;;;1.00;;
62256;SDS011;48240;52.962;5.790;2023-01-19T09:19:39;3.40;;;0.80;;
62256;SDS011;48240;52.962;5.790;2023-01-19T09:22:05;3.85;;;1.00;;
62256;SDS011;48240;52.962;5.790;2023-01-19T09:24:31;4.28;;;1.05;;
62256;SDS011;48240;52.962;5.790;2023-01-19T09:26:59;3.90;;;0.73;;
62256;SDS011;48240;52.962;5.790;2023-01-19T09:29:25;1.90;;;0.60;;
62256;SDS011;48240;52.962;5.790;2023-01-19T09:31:51;3.83;;;0.90;;
62256;SDS011;48240;52.962;5.790;2023-01-19T09:34:17;4.85;;;1.00;;
62256;SDS011;48240;52.962;5.790;2023-01-19T09:36:45;4.55;;;0.70;;
62256;SDS011;48240;52.962;5.790;2023-01-19T09:39:11;4.43;;;1.00;;
62256;SDS011;48240;52.962;5.790;2023-01-19T09:41:37;3.08;;;0.70;;
62256;SDS011;48240;52.962;5.790;2023-01-19T09:44:03;3.53;;;0.82;;
62256;SDS011;48240;52.962;5.790;2023-01-19T09:46:34;2.95;;;0.80;;
62256;SDS011;48240;52.962;5.790;2023-01-19T09:49:05;5.40;;;0.80;;
62256;SDS011;48240;52.962;5.790;2023-01-19T09:51:36;4.10;;;1.00;;
62256;SDS011;48240;52.962;5.790;2023-01-19T09:56:29;3.85;;;0.90;;
62256;SDS011;48240;52.962;5.790;2023-01-19T09:58:56;6.68;;;0.80;;
62256;SDS011;48240;52.962;5.790;2023-01-19T10:04:18;4.68;;;0.88;;
62256;SDS011;48240;52.962;5.790;2023-01-19T10:06:47;7.45;;;1.10;;
62256;SDS011;48240;52.962;5.790;2023-01-19T10:09:17;2.00;;;0.50;;
62256;SDS011;48240;52.962;5.790;2023-01-19T10:11:48;4.03;;;0.90;;
62256;SDS011;48240;52.962;5.790;2023-01-19T10:19:41;4.65;;;0.80;;
62256;SDS011;48240;52.962;5.790;2023-01-19T10:22:15;7.28;;;1.02;;
62256;SDS011;48240;52.962;5.790;2023-01-19T10:24:43;4.35;;;0.80;;
62256;SDS011;48240;52.962;5.790;2023-01-19T10:27:18;4.95;;;1.17;;
62256;SDS011;48240;52.962;5.790;2023-01-19T10:29:45;3.15;;;0.57;;
62256;SDS011;48240;52.962;5.790;2023-01-19T10:32:15;4.65;;;0.70;;
62256;SDS011;48240;52.962;5.790;2023-01-19T10:34:43;5.45;;;0.85;;
62256;SDS011;48240;52.962;5.790;2023-01-19T10:37:19;4.60;;;0.80;;
62256;SDS011;48240;52.962;5.790;2023-01-19T10:39:51;4.07;;;1.05;;
62256;SDS011;48240;52.962;5.790;2023-01-19T10:42:17;3.45;;;1.10;;
62256;SDS011;48240;52.962;5.790;2023-01-19T10:44:43;4.43;;;0.70;;
62256;SDS011;48240;52.962;5.790;2023-01-19T10:47:12;3.47;;;0.70;;
62256;SDS011;48240;52.962;5.790;2023-01-19T10:49:40;3.73;;;0.80;;
62256;SDS011;48240;52.962;5.790;2023-01-19T10:52:15;5.93;;;0.80;;
62256;SDS011;48240;52.962;5.790;2023-01-19T10:54:43;3.90;;;0.98;;
62256;SDS011;48240;52.962;5.790;2023-01-19T10:57:09;2.65;;;0.70;;
62256;SDS011;48240;52.962;5.790;2023-01-19T11:04:42;4.82;;;0.75;;
62256;SDS011;48240;52.962;5.790;2023-01-19T11:07:14;4.68;;;0.70;;
62256;SDS011;48240;52.962;5.790;2023-01-19T11:09:40;2.92;;;0.70;;
62256;SDS011;48240;52.962;5.790;2023-01-19T11:12:14;4.57;;;1.02;;
62256;SDS011;48240;52.962;5.790;2023-01-19T11:14:40;2.92;;;0.70;;
62256;SDS011;48240;52.962;5.790;2023-01-19T11:17:07;2.47;;;0.60;;
62256;SDS011;48240;52.962;5.790;2023-01-19T11:19:39;7.50;;;0.77;;
62256;SDS011;48240;52.962;5.790;2023-01-19T11:24:35;5.38;;;1.33;;
62256;SDS011;48240;52.962;5.790;2023-01-19T11:27:02;3.70;;;0.60;;
62256;SDS011;48240;52.962;5.790;2023-01-19T11:29:28;4.55;;;0.90;;
62256;SDS011;48240;52.962;5.790;2023-01-19T11:31:55;2.33;;;0.93;;
62256;SDS011;48240;52.962;5.790;2023-01-19T11:34:35;6.22;;;0.85;;
62256;SDS011;48240;52.962;5.790;2023-01-19T11:37:24;2.37;;;0.80;;
62256;SDS011;48240;52.962;5.790;2023-01-19T11:39:52;3.33;;;0.63;;
62256;SDS011;48240;52.962;5.790;2023-01-19T11:42:18;4.65;;;0.80;;
62256;SDS011;48240;52.962;5.790;2023-01-19T11:47:49;5.82;;;0.90;;
62256;SDS011;48240;52.962;5.790;2023-01-19T11:55:20;4.88;;;1.08;;
62256;SDS011;48240;52.962;5.790;2023-01-19T11:57:48;2.95;;;0.75;;
62256;SDS011;48240;52.962;5.790;2023-01-19T12:00:31;3.45;;;0.70;;
62256;SDS011;48240;52.962;5.790;2023-01-19T12:03:07;5.80;;;0.88;;
62256;SDS011;48240;52.962;5.790;2023-01-19T12:05:34;3.67;;;0.80;;
62256;SDS011;48240;52.962;5.790;2023-01-19T12:08:03;4.97;;;0.80;;
62256;SDS011;48240;52.962;5.790;2023-01-19T12:10:32;5.80;;;1.00;;
62256;SDS011;48240;52.962;5.790;2023-01-19T12:13:01;2.58;;;0.70;;
62256;SDS011;48240;52.962;5.790;2023-01-19T12:15:41;5.63;;;0.95;;
62256;SDS011;48240;52.962;5.790;2023-01-19T12:18:15;4.00;;;0.73;;
62256;SDS011;48240;52.962;5.790;2023-01-19T12:20:43;2.72;;;0.60;;
62256;SDS011;48240;52.962;5.790;2023-01-19T12:23:23;4.22;;;0.88;;
62256;SDS011;48240;52.962;5.790;2023-01-19T12:28:38;5.85;;;0.65;;
62256;SDS011;48240;52.962;5.790;2023-01-19T12:31:05;6.68;;;1.00;;
62256;SDS011;48240;52.962;5.790;2023-01-19T12:36:49;4.50;;;0.70;;
62256;SDS011;48240;52.962;5.790;2023-01-19T12:38:54;2.53;;;0.90;;
62256;SDS011;48240;52.962;5.790;2023-01-19T12:41:28;3.28;;;0.68;;
62256;SDS011;48240;52.962;5.790;2023-01-19T12:51:51;2.13;;;0.50;;
62256;SDS011;48240;52.962;5.790;2023-01-19T12:54:28;2.83;;;0.80;;
62256;SDS011;48240;52.962;5.790;2023-01-19T12:57:00;4.53;;;0.70;;
62256;SDS011;48240;52.962;5.790;2023-01-19T12:59:27;1.77;;;0.45;;
62256;SDS011;48240;52.962;5.790;2023-01-19T13:02:29;3.72;;;0.77;;
62256;SDS011;48240;52.962;5.790;2023-01-19T13:13:18;4.78;;;0.60;;
62256;SDS011;48240;52.962;5.790;2023-01-19T13:15:45;3.58;;;0.50;;
62256;SDS011;48240;52.962;5.790;2023-01-19T13:18:18;3.30;;;0.60;;
62256;SDS011;48240;52.962;5.790;2023-01-19T13:20:46;3.15;;;0.57;;
62256;SDS011;48240;52.962;5.790;2023-01-19T13:23:17;4.35;;;0.55;;
62256;SDS011;48240;52.962;5.790;2023-01-19T13:25:48;2.70;;;0.60;;
62256;SDS011;48240;52.962;5.790;2023-01-19T13:28:15;3.17;;;0.77;;
62256;SDS011;48240;52.962;5.790;2023-01-19T13:31:00;1.67;;;0.50;;
62256;SDS011;48240;52.962;5.790;2023-01-19T13:33:36;2.42;;;0.40;;
62256;SDS011;48240;52.962;5.790;2023-01-19T13:36:03;3.28;;;0.57;;
62256;SDS011;48240;52.962;5.790;2023-01-19T13:38:29;3.33;;;0.70;;
62256;SDS011;48240;52.962;5.790;2023-01-19T13:40:56;2.92;;;0.52;;
62256;SDS011;48240;52.962;5.790;2023-01-19T13:43:26;2.65;;;0.82;;
62256;SDS011;48240;52.962;5.790;2023-01-19T13:45:53;2.97;;;0.40;;
62256;SDS011;48240;52.962;5.790;2023-01-19T13:48:20;1.83;;;0.65;;
62256;SDS011;48240;52.962;5.790;2023-01-19T13:50:57;1.83;;;0.60;;
62256;SDS011;48240;52.962;5.790;2023-01-19T13:53:24;2.05;;;0.60;;
62256;SDS011;48240;52.962;5.790;2023-01-19T13:58:35;4.53;;;0.60;;
62256;SDS011;48240;52.962;5.790;2023-01-19T14:01:01;2.63;;;0.60;;
62256;SDS011;48240;52.962;5.790;2023-01-19T14:03:27;1.45;;;0.50;;
62256;SDS011;48240;52.962;5.790;2023-01-19T14:05:53;3.40;;;0.70;;
62256;SDS011;48240;52.962;5.790;2023-01-19T14:08:20;2.58;;;0.50;;
62256;SDS011;48240;52.962;5.790;2023-01-19T14:15:46;2.60;;;0.60;;
62256;SDS011;48240;52.962;5.790;2023-01-19T14:23:46;2.60;;;0.68;;
62256;SDS011;48240;52.962;5.790;2023-01-19T14:28:57;2.90;;;0.50;;
62256;SDS011;48240;52.962;5.790;2023-01-19T14:31:31;2.95;;;0.70;;
62256;SDS011;48240;52.962;5.790;2023-01-19T14:33:57;5.47;;;0.60;;
62256;SDS011;48240;52.962;5.790;2023-01-19T14:36:25;2.75;;;0.55;;
62256;SDS011;48240;52.962;5.790;2023-01-19T14:38:52;1.70;;;0.50;;
62256;SDS011;48240;52.962;5.790;2023-01-19T14:41:26;2.05;;;0.68;;
62256;SDS011;48240;52.962;5.790;2023-01-19T14:43:55;1.70;;;0.50;;
62256;SDS011;48240;52.962;5.790;2023-01-19T14:46:21;2.65;;;0.80;;
62256;SDS011;48240;52.962;5.790;2023-01-19T14:48:48;1.85;;;0.40;;
62256;SDS011;48240;52.962;5.790;2023-01-19T14:51:16;2.47;;;0.60;;
62256;SDS011;48240;52.962;5.790;2023-01-19T14:53:46;3.15;;;0.45;;
62256;SDS011;48240;52.962;5.790;2023-01-19T14:56:22;1.48;;;0.40;;
62256;SDS011;48240;52.962;5.790;2023-01-19T14:58:49;2.83;;;0.60;;
62256;SDS011;48240;52.962;5.790;2023-01-19T15:01:15;3.22;;;0.95;;
62256;SDS011;48240;52.962;5.790;2023-01-19T15:03:41;4.63;;;0.70;;
62256;SDS011;48240;52.962;5.790;2023-01-19T15:06:17;8.55;;;0.60;;
62256;SDS011;48240;52.962;5.790;2023-01-19T15:08:44;3.33;;;0.70;;
62256;SDS011;48240;52.962;5.790;2023-01-19T15:11:11;4.13;;;0.82;;
62256;SDS011;48240;52.962;5.790;2023-01-19T15:13:38;6.15;;;0.57;;
62256;SDS011;48240;52.962;5.790;2023-01-19T15:16:05;5.82;;;0.60;;
62256;SDS011;48240;52.962;5.790;2023-01-19T15:18:33;6.13;;;0.70;;
62256;SDS011;48240;52.962;5.790;2023-01-19T15:20:59;4.88;;;0.80;;
62256;SDS011;48240;52.962;5.790;2023-01-19T15:23:30;4.15;;;0.60;;
62256;SDS011;48240;52.962;5.790;2023-01-19T15:26:02;4.60;;;0.65;;
62256;SDS011;48240;52.962;5.790;2023-01-19T15:28:29;2.47;;;0.88;;
62256;SDS011;48240;52.962;5.790;2023-01-19T15:30:56;3.97;;;0.60;;
62256;SDS011;48240;52.962;5.790;2023-01-19T15:33:24;1.75;;;0.60;;
62256;SDS011;48240;52.962;5.790;2023-01-19T15:35:50;5.95;;;0.70;;
62256;SDS011;48240;52.962;5.790;2023-01-19T15:38:16;5.95;;;1.13;;
62256;SDS011;48240;52.962;5.790;2023-01-19T15:40:43;5.18;;;0.80;;
62256;SDS011;48240;52.962;5.790;2023-01-19T15:43:09;2.13;;;0.70;;
62256;SDS011;48240;52.962;5.790;2023-01-19T15:48:05;5.35;;;0.85;;
62256;SDS011;48240;52.962;5.790;2023-01-19T15:50:35;8.13;;;0.60;;
62256;SDS011;48240;52.962;5.790;2023-01-19T15:53:02;8.80;;;0.80;;
62256;SDS011;48240;52.962;5.790;2023-01-19T15:55:28;6.15;;;0.68;;
62256;SDS011;48240;52.962;5.790;2023-01-19T15:57:54;26.88;;;7.72;;
62256;SDS011;48240;52.962;5.790;2023-01-19T16:00:26;11.48;;;4.85;;
62256;SDS011;48240;52.962;5.790;2023-01-19T16:02:52;10.18;;;3.10;;
62256;SDS011;48240;52.962;5.790;2023-01-19T16:05:18;8.93;;;2.80;;
62256;SDS011;48240;52.962;5.790;2023-01-19T16:07:44;13.27;;;2.95;;
62256;SDS011;48240;52.962;5.790;2023-01-19T16:10:10;14.23;;;2.85;;
62256;SDS011;48240;52.962;5.790;2023-01-19T16:12:37;12.20;;;2.55;;
62256;SDS011;48240;52.962;5.790;2023-01-19T16:15:03;14.73;;;3.75;;
62256;SDS011;48240;52.962;5.790;2023-01-19T16:17:29;16.98;;;5.03;;
62256;SDS011;48240;52.962;5.790;2023-01-19T16:19:56;20.90;;;4.47;;
62256;SDS011;48240;52.962;5.790;2023-01-19T16:22:22;14.23;;;4.32;;
62256;SDS011;48240;52.962;5.790;2023-01-19T16:24:48;15.23;;;3.67;;
62256;SDS011;48240;52.962;5.790;2023-01-19T16:27:15;17.75;;;4.00;;
62256;SDS011;48240;52.962;5.790;2023-01-19T16:29:41;12.60;;;4.18;;
62256;SDS011;48240;52.962;5.790;2023-01-19T16:32:07;15.02;;;4.30;;
62256;SDS011;48240;52.962;5.790;2023-01-19T16:34:33;16.45;;;5.00;;
62256;SDS011;48240;52.962;5.790;2023-01-19T16:36:59;13.73;;;4.68;;
62256;SDS011;48240;52.962;5.790;2023-01-19T16:39:25;13.32;;;4.68;;
62256;SDS011;48240;52.962;5.790;2023-01-19T16:41:51;13.27;;;4.80;;
62256;SDS011;48240;52.962;5.790;2023-01-19T16:44:17;12.05;;;4.80;;
62256;SDS011;48240;52.962;5.790;2023-01-19T16:46:44;14.80;;;4.75;;
62256;SDS011;48240;52.962;5.790;2023-01-19T16:49:15;13.27;;;4.72;;
62256;SDS011;48240;52.962;5.790;2023-01-19T16:51:41;22.58;;;4.97;;
62256;SDS011;48240;52.962;5.790;2023-01-19T16:54:12;14.50;;;5.00;;
62256;SDS011;48240;52.962;5.790;2023-01-19T16:56:38;13.20;;;4.30;;
62256;SDS011;48240;52.962;5.790;2023-01-19T16:59:05;13.07;;;4.07;;
62256;SDS011;48240;52.962;5.790;2023-01-19T17:01:31;16.98;;;4.47;;
62256;SDS011;48240;52.962;5.790;2023-01-19T17:03:58;15.82;;;4.05;;
62256;SDS011;48240;52.962;5.790;2023-01-19T17:06:24;15.70;;;4.70;;
62256;SDS011;48240;52.962;5.790;2023-01-19T17:08:50;13.32;;;3.67;;
62256;SDS011;48240;52.962;5.790;2023-01-19T17:11:18;11.13;;;3.97;;
62256;SDS011;48240;52.962;5.790;2023-01-19T17:13:54;13.80;;;4.05;;
62256;SDS011;48240;52.962;5.790;2023-01-19T17:16:22;9.70;;;3.80;;
62256;SDS011;48240;52.962;5.790;2023-01-19T17:18:48;17.20;;;4.30;;
62256;SDS011;48240;52.962;5.790;2023-01-19T17:21:14;16.88;;;3.88;;
62256;SDS011;48240;52.962;5.790;2023-01-19T17:23:44;11.07;;;3.63;;
62256;SDS011;48240;52.962;5.790;2023-01-19T17:26:11;19.52;;;3.70;;
62256;SDS011;48240;52.962;5.790;2023-01-19T17:28:37;10.68;;;3.70;;
62256;SDS011;48240;52.962;5.790;2023-01-19T17:31:06;15.10;;;3.53;;
62256;SDS011;48240;52.962;5.790;2023-01-19T17:33:33;11.80;;;3.33;;
62256;SDS011;48240;52.962;5.790;2023-01-19T17:36:02;11.52;;;3.45;;
62256;SDS011;48240;52.962;5.790;2023-01-19T17:38:29;8.15;;;3.17;;
62256;SDS011;48240;52.962;5.790;2023-01-19T17:40:55;10.65;;;3.08;;
62256;SDS011;48240;52.962;5.790;2023-01-19T17:43:21;12.50;;;2.83;;
62256;SDS011;48240;52.962;5.790;2023-01-19T17:45:47;32.08;;;3.50;;
62256;SDS011;48240;52.962;5.790;2023-01-19T17:48:13;11.32;;;2.85;;
62256;SDS011;48240;52.962;5.790;2023-01-19T17:50:41;11.10;;;2.78;;
62256;SDS011;48240;52.962;5.790;2023-01-19T17:53:07;13.73;;;3.78;;
62256;SDS011;48240;52.962;5.790;2023-01-19T17:55:33;8.82;;;2.67;;
62256;SDS011;48240;52.962;5.790;2023-01-19T17:58:00;8.20;;;2.85;;
62256;SDS011;48240;52.962;5.790;2023-01-19T18:00:26;7.78;;;2.40;;
62256;SDS011;48240;52.962;5.790;2023-01-19T18:02:52;8.90;;;2.70;;
62256;SDS011;48240;52.962;5.790;2023-01-19T18:05:18;10.40;;;2.42;;
62256;SDS011;48240;52.962;5.790;2023-01-19T18:07:45;10.52;;;2.42;;
62256;SDS011;48240;52.962;5.790;2023-01-19T18:10:12;13.45;;;2.55;;
62256;SDS011;48240;52.962;5.790;2023-01-19T18:12:38;6.97;;;2.60;;
62256;SDS011;48240;52.962;5.790;2023-01-19T18:15:04;9.32;;;2.75;;
62256;SDS011;48240;52.962;5.790;2023-01-19T18:17:31;7.10;;;2.63;;
62256;SDS011;48240;52.962;5.790;2023-01-19T18:19:57;6.28;;;2.20;;
62256;SDS011;48240;52.962;5.790;2023-01-19T18:22:23;10.32;;;2.35;;
62256;SDS011;48240;52.962;5.790;2023-01-19T18:24:49;10.88;;;2.40;;
62256;SDS011;48240;52.962;5.790;2023-01-19T18:27:16;11.90;;;2.42;;
62256;SDS011;48240;52.962;5.790;2023-01-19T18:29:42;6.00;;;2.22;;
62256;SDS011;48240;52.962;5.790;2023-01-19T18:32:08;6.07;;;2.15;;
62256;SDS011;48240;52.962;5.790;2023-01-19T18:34:35;5.82;;;2.00;;
62256;SDS011;48240;52.962;5.790;2023-01-19T18:37:01;5.68;;;2.17;;
62256;SDS011;48240;52.962;5.790;2023-01-19T18:39:27;13.88;;;2.33;;
62256;SDS011;48240;52.962;5.790;2023-01-19T18:41:55;8.00;;;2.10;;
62256;SDS011;48240;52.962;5.790;2023-01-19T18:44:21;9.10;;;2.58;;
62256;SDS011;48240;52.962;5.790;2023-01-19T18:46:47;2.90;;;1.80;;
62256;SDS011;48240;52.962;5.790;2023-01-19T18:49:13;8.80;;;1.85;;
62256;SDS011;48240;52.962;5.790;2023-01-19T18:51:39;7.00;;;1.80;;
62256;SDS011;48240;52.962;5.790;2023-01-19T18:54:06;6.38;;;1.80;;
62256;SDS011;48240;52.962;5.790;2023-01-19T18:56:32;12.50;;;1.88;;
62256;SDS011;48240;52.962;5.790;2023-01-19T18:59:00;9.38;;;1.92;;
62256;SDS011;48240;52.962;5.790;2023-01-19T19:01:30;8.38;;;2.20;;
62256;SDS011;48240;52.962;5.790;2023-01-19T19:03:57;5.07;;;1.80;;
62256;SDS011;48240;52.962;5.790;2023-01-19T19:06:23;4.72;;;1.85;;
62256;SDS011;48240;52.962;5.790;2023-01-19T19:08:51;6.43;;;1.70;;
62256;SDS011;48240;52.962;5.790;2023-01-19T19:11:18;4.03;;;1.75;;
62256;SDS011;48240;52.962;5.790;2023-01-19T19:13:45;4.63;;;1.40;;
62256;SDS011;48240;52.962;5.790;2023-01-19T19:16:12;4.85;;;1.55;;
62256;SDS011;48240;52.962;5.790;2023-01-19T19:18:38;3.85;;;1.58;;
62256;SDS011;48240;52.962;5.790;2023-01-19T19:21:05;8.73;;;1.60;;
62256;SDS011;48240;52.962;5.790;2023-01-19T19:23:32;4.63;;;1.50;;
62256;SDS011;48240;52.962;5.790;2023-01-19T19:26:02;5.72;;;2.03;;
62256;SDS011;48240;52.962;5.790;2023-01-19T19:28:28;3.63;;;1.30;;
62256;SDS011;48240;52.962;5.790;2023-01-19T19:33:33;5.25;;;1.42;;
62256;SDS011;48240;52.962;5.790;2023-01-19T19:35:59;10.63;;;1.23;;
62256;SDS011;48240;52.962;5.790;2023-01-19T19:38:26;6.43;;;1.38;;
62256;SDS011;48240;52.962;5.790;2023-01-19T19:40:52;2.65;;;1.27;;
62256;SDS011;48240;52.962;5.790;2023-01-19T19:43:21;2.72;;;1.40;;
62256;SDS011;48240;52.962;5.790;2023-01-19T19:46:01;5.20;;;1.58;;
62256;SDS011;48240;52.962;5.790;2023-01-19T19:48:27;4.53;;;1.27;;
62256;SDS011;48240;52.962;5.790;2023-01-19T19:50:53;4.10;;;1.40;;
62256;SDS011;48240;52.962;5.790;2023-01-19T19:53:20;3.65;;;1.30;;
62256;SDS011;48240;52.962;5.790;2023-01-19T19:55:59;4.03;;;1.20;;
62256;SDS011;48240;52.962;5.790;2023-01-19T19:58:27;3.33;;;1.30;;
62256;SDS011;48240;52.962;5.790;2023-01-19T20:00:53;2.33;;;1.10;;
62256;SDS011;48240;52.962;5.790;2023-01-19T20:03:20;5.90;;;1.20;;
62256;SDS011;48240;52.962;5.790;2023-01-19T20:05:46;2.95;;;1.20;;
62256;SDS011;48240;52.962;5.790;2023-01-19T20:08:12;5.55;;;1.30;;
62256;SDS011;48240;52.962;5.790;2023-01-19T20:10:39;3.42;;;1.20;;
62256;SDS011;48240;52.962;5.790;2023-01-19T20:13:05;6.03;;;1.00;;
62256;SDS011;48240;52.962;5.790;2023-01-19T20:15:34;3.53;;;1.17;;
62256;SDS011;48240;52.962;5.790;2023-01-19T20:18:01;2.50;;;1.02;;
62256;SDS011;48240;52.962;5.790;2023-01-19T20:20:27;3.30;;;1.08;;
62256;SDS011;48240;52.962;5.790;2023-01-19T20:22:54;43.13;;;10.25;;
62256;SDS011;48240;52.962;5.790;2023-01-19T20:25:20;7.80;;;2.47;;
62256;SDS011;48240;52.962;5.790;2023-01-19T20:27:46;6.28;;;1.88;;
62256;SDS011;48240;52.962;5.790;2023-01-19T20:30:12;6.45;;;1.80;;
62256;SDS011;48240;52.962;5.790;2023-01-19T20:32:38;11.27;;;1.92;;
62256;SDS011;48240;52.962;5.790;2023-01-19T20:35:04;6.72;;;1.50;;
62256;SDS011;48240;52.962;5.790;2023-01-19T20:37:31;4.72;;;1.67;;
62256;SDS011;48240;52.962;5.790;2023-01-19T20:39:57;3.17;;;1.27;;
62256;SDS011;48240;52.962;5.790;2023-01-19T20:42:23;4.68;;;1.45;;
62256;SDS011;48240;52.962;5.790;2023-01-19T20:44:49;5.90;;;1.30;;
62256;SDS011;48240;52.962;5.790;2023-01-19T20:47:15;4.20;;;1.40;;
62256;SDS011;48240;52.962;5.790;2023-01-19T20:49:41;10.05;;;1.10;;
62256;SDS011;48240;52.962;5.790;2023-01-19T20:52:07;4.25;;;1.35;;